Time;durP1;ratioP1;P1;durP2;ratioP2;P2;SDS_P1;SDS_P2;PMS_P1;PMS_P2;Temp;Humidity;BMP_temperature;BMP_pressure;BME280_temperature;BME280_humidity;BME280_pressure;Samples;Min_cycle;Max_cycle;Signal;HPM_P1;HPM_P2
2022/04/02 00:00:59;;;;;;;5.90;2.85;;;;;;;0.85;66.80;101492.59;5033321;28;20079;-82
2022/04/02 00:03:24;;;;;;;6.72;2.88;;;;;;;0.84;66.89;101498.63;5033181;28;20082;-82
2022/04/02 00:05:50;;;;;;;9.10;2.95;;;;;;;0.86;66.10;101495.22;5049980;28;20477;-82
2022/04/02 00:08:16;;;;;;;4.65;3.05;;;;;;;0.85;66.19;101501.28;5033089;28;20211;-82
2022/04/02 00:10:41;;;;;;;6.82;2.70;;;;;;;0.87;66.43;101498.72;5049625;28;20030;-82
2022/04/02 00:13:07;;;;;;;4.63;2.55;;;;;;;0.87;66.55;101501.34;5037052;28;20071;-82
2022/04/02 00:15:33;;;;;;;6.93;3.00;;;;;;;0.88;66.14;101497.00;5050212;28;20044;-82
2022/04/02 00:17:58;;;;;;;5.03;3.00;;;;;;;0.90;66.04;101503.16;5042645;28;20033;-82
2022/04/02 00:20:24;;;;;;;3.97;2.72;;;;;;;0.91;66.23;101504.91;5030037;28;20044;-82
2022/04/02 00:25:33;;;;;;;3.10;2.60;;;;;;;0.90;65.89;101504.03;5031353;28;20041;-81
2022/04/02 00:27:59;;;;;;;10.20;2.88;;;;;;;0.90;66.00;101493.59;5029864;28;20041;-81
2022/04/02 00:30:25;;;;;;;5.07;2.70;;;;;;;0.91;66.31;101504.91;5022289;28;20024;-82
2022/04/02 00:32:50;;;;;;;8.13;2.85;;;;;;;0.92;66.04;101511.91;5049488;28;20132;-82
2022/04/02 00:35:16;;;;;;;7.78;2.63;;;;;;;0.92;65.63;101509.28;5032755;28;20045;-82
2022/04/02 00:37:41;;;;;;;7.40;3.15;;;;;;;0.91;65.79;101508.38;5032932;28;20157;-82
2022/04/02 00:40:08;;;;;;;5.18;2.90;;;;;;;0.90;65.68;101500.53;5033103;28;20112;-82
2022/04/02 00:42:34;;;;;;;6.68;2.90;;;;;;;0.91;65.91;101502.28;5049444;28;20063;-82
2022/04/02 00:44:59;;;;;;;6.80;3.05;;;;;;;0.90;65.58;101495.31;5049308;28;20071;-82
2022/04/02 00:47:25;;;;;;;4.40;3.03;;;;;;;0.88;65.55;101499.59;5049472;28;20445;-82
2022/04/02 00:49:53;;;;;;;6.88;3.05;;;;;;;0.90;65.69;101498.81;5016414;28;20040;-82
2022/04/02 00:52:21;;;;;;;4.72;2.72;;;;;;;0.89;65.67;101496.16;5048822;28;20033;-82
2022/04/02 00:54:49;;;;;;;5.43;2.55;;;;;;;0.88;65.50;101487.44;5049427;28;20155;-82
2022/04/02 00:57:16;;;;;;;6.68;2.35;;;;;;;0.89;65.73;101501.34;5050549;28;20120;-82
2022/04/02 00:59:41;;;;;;;3.40;2.50;;;;;;;0.86;65.12;101500.44;5049316;28;20094;-82
2022/04/02 01:02:07;;;;;;;4.55;2.83;;;;;;;0.85;65.50;101501.28;5048173;28;20029;-82
2022/04/02 01:04:33;;;;;;;5.22;2.70;;;;;;;0.84;65.46;101502.13;5049160;28;20044;-81
2022/04/02 01:07:00;;;;;;;6.00;3.15;;;;;;;0.84;65.31;101506.44;5050555;28;20033;-82
2022/04/02 01:09:28;;;;;;;4.07;2.65;;;;;;;0.82;65.48;101502.94;5033045;28;20083;-82
2022/04/02 01:11:54;;;;;;;5.88;2.80;;;;;;;0.82;65.20;101508.16;5028561;28;20037;-82
2022/04/02 01:14:20;;;;;;;7.03;3.17;;;;;;;0.79;65.24;101508.03;5039350;28;20037;-82
2022/04/02 01:16:49;;;;;;;5.25;2.88;;;;;;;0.79;64.81;101506.34;5011978;28;20132;-82
2022/04/02 01:19:21;;;;;;;5.75;2.58;;;;;;;0.78;65.18;101509.75;5043711;28;20048;-81
2022/04/02 01:21:54;;;;;;;5.75;2.65;;;;;;;0.81;65.06;101522.00;5032137;28;20036;-82
2022/04/02 01:24:37;;;;;;;3.85;2.53;;;;;;;0.80;65.11;101512.44;5014818;28;20037;-81
2022/04/02 01:27:03;;;;;;;4.25;2.53;;;;;;;0.78;65.06;101509.75;5012292;28;20033;-81
2022/04/02 01:29:33;;;;;;;7.32;3.00;;;;;;;0.77;64.84;101513.22;5028878;28;20500;-81
2022/04/02 01:32:00;;;;;;;5.28;2.85;;;;;;;0.77;65.44;101513.22;5030582;28;20087;-82
2022/04/02 01:34:28;;;;;;;6.68;2.83;;;;;;;0.75;65.56;101501.84;5032584;28;20032;-81
2022/04/02 01:36:58;;;;;;;8.13;3.13;;;;;;;0.76;65.41;101508.84;5048601;28;20072;-82
2022/04/02 01:39:27;;;;;;;6.18;2.78;;;;;;;0.75;65.21;101501.84;5032333;28;20045;-82
2022/04/02 01:41:53;;;;;;;5.43;2.90;;;;;;;0.75;65.69;101503.59;5048585;28;20087;-81
2022/04/02 01:44:25;;;;;;;4.68;2.30;;;;;;;0.75;64.86;101504.47;5048718;28;20407;-82
2022/04/02 01:46:51;;;;;;;4.65;2.42;;;;;;;0.73;65.12;101503.53;5048447;28;20143;-82
2022/04/02 01:49:18;;;;;;;5.63;2.72;;;;;;;0.71;65.26;101497.38;5048467;28;20056;-82
2022/04/02 01:51:45;;;;;;;6.15;2.78;;;;;;;0.71;65.10;101494.78;5035003;28;20095;-81
2022/04/02 01:54:17;;;;;;;7.60;2.92;;;;;;;0.72;65.46;101500.88;4981277;28;20128;-82
2022/04/02 01:56:43;;;;;;;6.68;2.90;;;;;;;0.71;65.49;101505.22;5028601;28;20045;-81
2022/04/02 01:59:09;;;;;;;3.47;2.42;;;;;;;0.71;65.39;101506.94;5012068;28;20026;-81
2022/04/02 02:01:35;;;;;;;4.53;2.90;;;;;;;0.69;65.34;101512.09;5012402;28;20543;-81
2022/04/02 02:04:00;;;;;;;6.60;3.20;;;;;;;0.69;65.27;101513.81;5012022;28;20048;-81
2022/04/02 02:06:26;;;;;;;9.57;3.00;;;;;;;0.67;65.33;101513.81;4996235;28;20029;-81
2022/04/02 02:08:52;;;;;;;5.65;2.55;;;;;;;0.64;65.32;101517.19;5012020;28;20040;-81
2022/04/02 02:11:36;;;;;;;5.07;2.70;;;;;;;0.63;65.38;101520.63;5014908;28;20115;-81
2022/04/02 02:14:09;;;;;;;3.65;2.75;;;;;;;0.63;65.21;101520.63;5031927;28;20075;-81
2022/04/02 02:16:37;;;;;;;4.30;2.63;;;;;;;0.62;65.30;101526.69;5020276;28;20127;-81
2022/04/02 02:19:03;;;;;;;7.97;3.55;;;;;;;0.60;65.46;101527.50;5040662;28;20064;-81
2022/04/02 02:21:29;;;;;;;6.68;2.92;;;;;;;0.60;65.61;101530.09;5031946;28;20029;-81
2022/04/02 02:23:54;;;;;;;5.10;2.80;;;;;;;0.60;65.28;101535.31;5033053;28;20422;-81
2022/04/02 02:26:20;;;;;;;4.10;2.42;;;;;;;0.59;65.69;101534.44;5051719;28;20033;-81
2022/04/02 02:28:45;;;;;;;5.03;2.80;;;;;;;0.59;65.82;101530.91;5035142;28;20036;-81
2022/04/02 02:31:20;;;;;;;5.10;2.70;;;;;;;0.55;66.07;101524.75;5051871;28;20116;-81
2022/04/02 02:36:32;;;;;;;4.65;2.65;;;;;;;0.50;65.51;101536.75;5031717;28;20061;-81
2022/04/02 02:39:03;;;;;;;5.57;3.13;;;;;;;0.50;65.77;101533.28;5015820;28;20036;-81
2022/04/02 02:41:34;;;;;;;5.75;2.90;;;;;;;0.49;65.55;101540.19;5015940;28;20030;-81
2022/04/02 02:44:03;;;;;;;5.72;2.60;;;;;;;0.47;65.76;101546.19;5015472;28;20036;-81
2022/04/02 02:46:38;;;;;;;4.57;2.30;;;;;;;0.44;65.04;101541.75;5016441;28;20541;-82
2022/04/02 02:49:10;;;;;;;4.85;2.63;;;;;;;0.46;64.73;101537.47;5015827;28;20041;-81
2022/04/02 02:51:40;;;;;;;5.00;2.50;;;;;;;0.46;65.36;101547.91;5027833;28;20117;-81
2022/04/02 02:54:09;;;;;;;6.82;3.05;;;;;;;0.47;65.49;101548.78;5019349;28;20129;-81
2022/04/02 02:56:35;;;;;;;4.45;2.60;;;;;;;0.47;65.04;101551.38;5051169;28;20458;-81
2022/04/02 02:59:00;;;;;;;3.67;2.35;;;;;;;0.46;65.34;101549.63;5051332;28;20041;-81
2022/04/02 03:01:26;;;;;;;5.15;2.67;;;;;;;0.43;64.97;101546.09;5034637;28;20448;-81
2022/04/02 03:03:55;;;;;;;3.85;2.50;;;;;;;0.42;65.41;101544.34;5019098;28;20090;-81
2022/04/02 03:06:25;;;;;;;6.50;2.78;;;;;;;0.41;65.22;101547.75;5035277;28;20139;-81
2022/04/02 03:08:50;;;;;;;4.95;2.70;;;;;;;0.41;65.55;101547.75;5050913;28;20178;-81
2022/04/02 03:11:17;;;;;;;4.72;2.78;;;;;;;0.39;65.51;101533.78;5034416;28;20327;-81
2022/04/02 03:13:42;;;;;;;4.85;2.70;;;;;;;0.38;65.47;101547.69;5034107;28;20055;-81
2022/04/02 03:16:10;;;;;;;5.05;2.60;;;;;;;0.36;65.66;101551.94;5032231;28;20029;-81
2022/04/02 03:18:49;;;;;;;6.85;2.55;;;;;;;0.35;65.63;101552.81;5032497;28;20072;-81
2022/04/02 03:21:18;;;;;;;5.53;2.22;;;;;;;0.33;65.56;101550.97;5030958;28;20041;-81
2022/04/02 03:23:44;;;;;;;7.30;2.83;;;;;;;0.32;65.92;101552.72;5029999;28;20414;-81
2022/04/02 03:26:13;;;;;;;5.43;2.90;;;;;;;0.32;66.00;101552.72;5034447;28;20583;-81
2022/04/02 03:28:40;;;;;;;7.22;2.78;;;;;;;0.28;65.86;101553.44;5050890;28;20404;-81
2022/04/02 03:31:05;;;;;;;7.65;2.95;;;;;;;0.31;66.43;101560.47;5017725;28;20037;-81
2022/04/02 03:33:33;;;;;;;4.72;3.05;;;;;;;0.29;66.49;101556.91;5034398;28;20461;-81
2022/04/02 03:36:02;;;;;;;4.75;2.47;;;;;;;0.28;66.35;101556.03;5001189;28;20474;-81
2022/04/02 03:38:28;;;;;;;3.83;2.83;;;;;;;0.24;66.63;101558.50;5030688;28;20059;-81
2022/04/02 03:40:58;;;;;;;6.05;2.90;;;;;;;0.19;66.36;101556.63;4999110;28;20014;-81
2022/04/02 03:43:23;;;;;;;3.78;2.67;;;;;;;0.20;66.85;101566.22;5014344;28;20131;-81
2022/04/02 03:45:49;;;;;;;4.95;3.10;;;;;;;0.18;66.82;101564.41;5014353;28;20029;-81
2022/04/02 03:48:14;;;;;;;4.32;2.97;;;;;;;0.15;67.09;101570.41;5014053;28;20063;-81
2022/04/02 03:50:42;;;;;;;6.63;3.20;;;;;;;0.14;67.26;101568.63;4998681;28;20022;-81
2022/04/02 03:53:15;;;;;;;6.45;2.72;;;;;;;0.12;67.37;101569.41;5031791;28;20115;-81
2022/04/02 03:55:52;;;;;;;4.85;2.78;;;;;;;0.10;67.36;101568.47;5015947;28;20053;-81
2022/04/02 03:58:27;;;;;;;4.03;2.70;;;;;;;0.08;67.10;101568.44;4999758;28;20512;-81
2022/04/02 04:00:53;;;;;;;4.88;2.97;;;;;;;0.09;67.33;101578.00;5014152;28;20034;-81
2022/04/02 04:03:19;;;;;;;5.95;3.08;;;;;;;0.08;67.62;101580.56;5030159;28;20373;-81
2022/04/02 04:05:48;;;;;;;4.78;2.90;;;;;;;0.06;67.34;101574.44;5030124;28;20041;-81
2022/04/02 04:08:15;;;;;;;5.78;3.03;;;;;;;0.05;67.42;101570.94;5014156;28;20490;-81
2022/04/02 04:10:43;;;;;;;5.68;3.00;;;;;;;0.04;67.62;101576.09;5029813;28;20045;-81
2022/04/02 04:13:09;;;;;;;4.35;2.75;;;;;;;0.03;67.64;101576.94;5013874;28;20444;-81
2022/04/02 04:15:38;;;;;;;5.32;3.20;;;;;;;0.01;67.64;101578.59;5013722;28;20037;-81
2022/04/02 04:18:06;;;;;;;4.97;2.50;;;;;;;0.01;67.97;101589.91;5041012;28;20437;-81
2022/04/02 04:20:32;;;;;;;4.55;2.58;;;;;;;-0.01;67.68;101584.63;5013829;28;20033;-81
2022/04/02 04:23:00;;;;;;;7.72;3.22;;;;;;;-0.02;67.90;101584.59;5040309;28;20041;-81
2022/04/02 04:25:26;;;;;;;9.43;3.00;;;;;;;-0.04;67.73;101581.94;5033624;28;20029;-81
2022/04/02 04:27:53;;;;;;;7.50;2.83;;;;;;;-0.04;67.33;101592.34;5049626;28;20354;-81
2022/04/02 04:30:20;;;;;;;4.55;2.47;;;;;;;-0.09;67.86;101578.28;5049780;28;20033;-81
2022/04/02 04:32:46;;;;;;;4.90;2.67;;;;;;;-0.06;67.40;101583.59;5049355;28;20503;-81
2022/04/02 04:35:12;;;;;;;3.97;2.50;;;;;;;-0.06;67.72;101575.78;5012812;28;20125;-81
2022/04/02 04:37:37;;;;;;;7.28;2.92;;;;;;;-0.04;67.63;101586.25;5029712;28;20401;-81
2022/04/02 04:40:11;;;;;;;4.60;2.50;;;;;;;-0.06;67.34;101587.91;5029592;28;20152;-81
2022/04/02 04:42:39;;;;;;;5.50;2.53;;;;;;;-0.06;67.30;101582.72;5029556;28;20522;-81
2022/04/02 04:45:07;;;;;;;5.15;2.63;;;;;;;-0.05;67.40;101598.41;5013443;28;20128;-81
2022/04/02 04:47:35;;;;;;;4.13;2.63;;;;;;;-0.04;67.52;101604.47;5013498;28;20029;-81
2022/04/02 04:50:00;;;;;;;7.32;2.63;;;;;;;-0.05;67.47;101605.28;5030943;28;20216;-81
2022/04/02 04:52:26;;;;;;;5.20;2.55;;;;;;;-0.05;67.00;101598.41;5028304;28;20401;-81
2022/04/02 04:54:52;;;;;;;4.10;2.58;;;;;;;-0.05;67.61;101606.22;5029660;28;20041;-81
2022/04/02 04:57:19;;;;;;;3.00;2.40;;;;;;;-0.04;67.16;101612.28;5013004;28;20133;-81
2022/04/02 04:59:54;;;;;;;7.68;2.83;;;;;;;-0.04;67.29;101613.19;5014167;28;20041;-81
2022/04/02 05:02:20;;;;;;;3.65;2.40;;;;;;;-0.04;67.61;101614.91;5012945;28;20125;-81
2022/04/02 05:04:46;;;;;;;5.30;2.55;;;;;;;-0.04;67.82;101625.31;5013319;28;20370;-81
2022/04/02 05:07:12;;;;;;;4.45;2.53;;;;;;;-0.05;67.26;101627.03;5012985;28;20120;-81
2022/04/02 05:09:42;;;;;;;5.25;2.88;;;;;;;-0.07;67.24;101626.09;5013388;28;20048;-81
2022/04/02 05:12:08;;;;;;;5.45;2.70;;;;;;;-0.05;67.42;101628.72;5029180;28;20041;-81
2022/04/02 05:14:38;;;;;;;5.60;2.78;;;;;;;-0.09;67.71;101627.75;5013618;28;20370;-81
2022/04/02 05:17:06;;;;;;;4.07;2.50;;;;;;;-0.07;67.67;101639.13;5024173;28;20029;-81
2022/04/02 05:19:34;;;;;;;6.70;2.88;;;;;;;-0.08;67.89;101628.63;5029489;28;20033;-82
2022/04/02 05:22:03;;;;;;;4.40;3.40;;;;;;;-0.08;67.77;101642.53;5016209;28;20039;-82
2022/04/02 05:24:34;;;;;;;4.63;2.75;;;;;;;-0.08;67.52;101645.13;5033169;28;20057;-82
2022/04/02 05:27:00;;;;;;;7.13;3.58;;;;;;;-0.08;67.52;101642.53;5032746;28;20037;-82
2022/04/02 05:29:26;;;;;;;3.75;2.75;;;;;;;-0.06;67.77;101646.06;5048891;28;20095;-80
2022/04/02 05:31:51;;;;;;;3.67;2.38;;;;;;;-0.05;67.41;101652.16;5050377;28;20412;-80
2022/04/02 05:34:17;;;;;;;4.13;2.40;;;;;;;-0.03;67.95;101656.59;5028611;28;20445;-79
2022/04/02 05:36:43;;;;;;;4.72;2.60;;;;;;;-0.02;67.67;101652.28;5028790;28;20339;-79
2022/04/02 05:39:09;;;;;;;4.65;2.53;;;;;;;0.00;67.73;101663.66;5012511;28;20061;-79
2022/04/02 05:41:37;;;;;;;4.47;2.47;;;;;;;0.03;68.07;101660.28;4995980;28;20075;-80
2022/04/02 05:44:07;;;;;;;3.90;2.60;;;;;;;0.03;67.48;101668.97;5012911;28;20044;-80
2022/04/02 05:46:33;;;;;;;4.78;2.67;;;;;;;0.07;67.87;101677.75;5028757;28;20037;-80
2022/04/02 05:48:59;;;;;;;7.63;2.80;;;;;;;0.07;68.11;101670.81;5033568;28;20425;-79
2022/04/02 05:51:25;;;;;;;6.47;3.00;;;;;;;0.10;68.03;101677.84;5033924;28;20040;-79
2022/04/02 05:53:51;;;;;;;4.80;2.40;;;;;;;0.13;67.85;101691.00;5033948;28;20053;-79
2022/04/02 05:56:18;;;;;;;6.63;3.22;;;;;;;0.14;67.98;101688.44;4999804;28;20055;-79
2022/04/02 05:58:44;;;;;;;7.05;4.30;;;;;;;0.17;67.74;101685.94;5032456;28;20433;-80
2022/04/02 06:01:09;;;;;;;4.63;2.83;;;;;;;0.17;68.04;101685.94;5032554;28;20112;-80
2022/04/02 06:03:36;;;;;;;4.05;2.70;;;;;;;0.20;67.96;101680.84;5015680;28;20053;-80
2022/04/02 06:06:02;;;;;;;4.65;2.67;;;;;;;0.21;67.87;101682.59;5015802;28;20567;-80
2022/04/02 06:08:28;;;;;;;6.57;3.03;;;;;;;0.24;67.74;101689.63;5015367;28;20137;-80
2022/04/02 06:10:53;;;;;;;8.95;2.90;;;;;;;0.26;68.04;101697.50;5033571;28;20045;-79
2022/04/02 06:13:19;;;;;;;5.85;2.90;;;;;;;0.29;67.78;101692.41;5033177;28;20403;-79
2022/04/02 06:15:44;;;;;;;4.60;3.05;;;;;;;0.31;67.95;101699.44;5033331;28;20462;-79
2022/04/02 06:18:11;;;;;;;6.57;2.90;;;;;;;0.33;67.66;101694.28;5042952;28;20072;-79
2022/04/02 06:20:37;;;;;;;5.32;2.83;;;;;;;0.38;68.10;101708.34;5015826;28;20045;-79
2022/04/02 06:23:03;;;;;;;6.93;2.70;;;;;;;0.42;67.75;101715.41;5043215;28;20120;-79
2022/04/02 06:25:28;;;;;;;6.18;3.40;;;;;;;0.45;68.15;101707.72;5053374;28;20049;-79
2022/04/02 06:27:54;;;;;;;5.35;2.63;;;;;;;0.49;67.67;101703.47;5053142;28;20041;-79
2022/04/02 06:30:21;;;;;;;7.05;3.40;;;;;;;0.53;68.16;101718.41;5035195;28;20025;-79
2022/04/02 06:32:46;;;;;;;8.80;3.40;;;;;;;0.58;67.93;101727.25;5051744;28;20052;-79
2022/04/02 06:35:13;;;;;;;5.22;3.15;;;;;;;0.60;68.28;101723.84;5023245;28;20057;-79
2022/04/02 06:37:40;;;;;;;4.88;2.92;;;;;;;0.67;67.90;101729.25;5014844;28;20450;-79
2022/04/02 06:40:11;;;;;;;5.20;2.90;;;;;;;0.73;67.85;101730.34;5032859;28;20120;-79
2022/04/02 06:42:37;;;;;;;6.97;3.03;;;;;;;0.76;67.55;101738.25;5031344;28;20033;-79
2022/04/02 06:45:07;;;;;;;6.32;3.17;;;;;;;0.82;67.64;101737.59;5031554;28;20092;-80
2022/04/02 06:47:33;;;;;;;7.72;3.00;;;;;;;0.86;68.10;101745.53;5031317;28;20065;-79
2022/04/02 06:50:06;;;;;;;12.82;3.35;;;;;;;0.91;67.30;101737.00;5031459;28;20498;-79
2022/04/02 06:52:32;;;;;;;4.85;2.70;;;;;;;0.94;67.21;101748.44;5032895;28;20216;-79
2022/04/02 06:54:57;;;;;;;7.18;2.97;;;;;;;0.96;67.26;101746.72;5015022;28;20041;-79
2022/04/02 06:57:23;;;;;;;5.43;2.97;;;;;;;1.00;67.16;101746.00;5032366;28;20026;-80
2022/04/02 06:59:49;;;;;;;6.78;2.88;;;;;;;1.08;66.95;101751.44;5030666;28;20038;-79
2022/04/02 07:02:16;;;;;;;4.60;2.80;;;;;;;1.13;66.81;101744.66;5014601;28;20033;-79
2022/04/02 07:04:42;;;;;;;4.80;2.58;;;;;;;1.19;66.97;101754.41;5030860;28;20033;-79
2022/04/02 07:07:08;;;;;;;5.65;3.17;;;;;;;1.25;67.06;101757.19;5032307;28;20061;-79
2022/04/02 07:09:35;;;;;;;5.40;2.97;;;;;;;1.33;66.42;101754.81;5032270;28;20032;-79
2022/04/02 07:12:01;;;;;;;5.80;2.70;;;;;;;1.38;66.28;101763.69;5032252;28;20044;-79
2022/04/02 07:14:27;;;;;;;10.27;3.20;;;;;;;1.44;66.32;101763.88;5030590;28;20123;-79
2022/04/02 07:16:53;;;;;;;7.57;3.25;;;;;;;1.50;66.63;101767.53;5035219;28;20364;-79
2022/04/02 07:19:23;;;;;;;6.25;3.08;;;;;;;1.58;66.30;101772.09;5046210;28;20021;-79
2022/04/02 07:21:53;;;;;;;7.78;3.13;;;;;;;1.64;66.33;101772.31;5048992;28;20044;-79
2022/04/02 07:24:20;;;;;;;5.97;3.33;;;;;;;1.74;65.68;101779.56;5030664;28;20029;-79
2022/04/02 07:26:48;;;;;;;5.90;3.08;;;;;;;1.81;65.93;101776.28;5030628;28;20091;-79
2022/04/02 07:29:15;;;;;;;4.90;2.95;;;;;;;1.90;65.78;101793.94;5014058;28;20044;-79
2022/04/02 07:31:44;;;;;;;5.35;3.13;;;;;;;1.97;65.13;101788.06;5030443;28;20045;-79
2022/04/02 07:34:10;;;;;;;6.88;3.00;;;;;;;2.10;65.21;101790.19;5033182;28;20326;-79
2022/04/02 07:37:06;;;;;;;6.20;3.08;;;;;;;2.21;64.21;101794.81;5047211;28;20527;-79
2022/04/02 07:39:42;;;;;;;5.53;3.40;;;;;;;2.29;63.92;101788.06;5031888;28;20119;-80
2022/04/02 07:42:17;;;;;;;7.53;3.65;;;;;;;2.32;63.10;101802.09;5031729;28;20554;-80
2022/04/02 07:44:49;;;;;;;9.63;4.30;;;;;;;2.38;63.25;101805.75;5030471;28;20345;-79
2022/04/02 07:47:17;;;;;;;;;;;;;;;2.44;64.19;101808.50;5030733;28;20041;-79
2022/04/02 07:49:46;;;;;;;4.72;3.28;;;;;;;2.43;62.79;101806.75;5030351;28;19989;-80
2022/04/02 07:52:12;;;;;;;7.20;3.60;;;;;;;2.50;63.02;101806.94;5041093;28;20095;-79
2022/04/02 07:54:42;;;;;;;6.38;3.10;;;;;;;2.61;62.68;101806.34;5029486;28;20036;-80
2022/04/02 07:57:09;;;;;;;5.97;3.60;;;;;;;2.66;62.79;101807.34;5031571;28;20041;-80
2022/04/02 07:59:44;;;;;;;6.80;3.47;;;;;;;2.72;62.61;101807.50;5014778;28;20037;-79
2022/04/02 08:05:05;;;;;;;6.65;3.00;;;;;;;2.80;62.02;101806.84;5029673;28;20043;-80
2022/04/02 08:07:33;;;;;;;6.57;3.35;;;;;;;2.89;61.65;101805.31;5029599;28;20049;-79
2022/04/02 08:10:00;;;;;;;7.35;2.80;;;;;;;2.91;61.08;101808.84;4996688;28;20034;-80
2022/04/02 08:12:26;;;;;;;4.75;3.22;;;;;;;2.93;61.42;101808.03;5029362;28;20041;-80
2022/04/02 08:14:53;;;;;;;6.75;3.60;;;;;;;2.92;61.22;101810.63;4997164;28;20037;-80
2022/04/02 08:17:20;;;;;;;7.20;3.00;;;;;;;2.98;60.86;101816.88;5009923;28;20048;-79
2022/04/02 08:19:49;;;;;;;5.90;3.20;;;;;;;3.01;60.85;101808.22;5014773;28;20040;-79
2022/04/02 08:22:16;;;;;;;5.07;2.90;;;;;;;3.03;61.23;101811.78;5001824;28;20311;-79
2022/04/02 08:24:43;;;;;;;7.22;3.03;;;;;;;3.04;61.54;101815.28;5049180;28;20148;-80
2022/04/02 08:27:39;;;;;;;5.70;3.75;;;;;;;3.11;61.46;101814.56;5049384;28;20036;-79
2022/04/02 08:30:10;;;;;;;6.90;3.42;;;;;;;3.19;61.31;101813.94;5050667;28;20033;-80
2022/04/02 08:32:40;;;;;;;;;;;;;;;3.28;61.56;101822.84;5048679;28;20041;-80
2022/04/02 08:35:11;;;;;;;4.93;3.28;;;;;;;3.35;60.94;101832.59;5037590;28;20408;-80
2022/04/02 08:37:36;;;;;;;8.40;3.25;;;;;;;3.33;60.91;101826.44;5028299;28;20128;-79
2022/04/02 08:40:36;;;;;;;4.53;2.90;;;;;;;3.25;60.44;101828.00;5011842;28;20147;-80
2022/04/02 08:43:20;;;;;;;6.65;3.70;;;;;;;3.14;60.62;101831.25;5029106;28;20116;-80
2022/04/02 08:46:04;;;;;;;4.25;3.08;;;;;;;3.14;61.57;101835.56;5028361;28;20033;-79
2022/04/02 08:48:35;;;;;;;6.53;3.75;;;;;;;3.20;61.79;101838.38;5030314;28;20030;-79
2022/04/02 08:51:15;;;;;;;5.90;3.42;;;;;;;3.27;62.00;101829.81;5028875;28;20723;-79
2022/04/02 08:54:04;;;;;;;7.53;3.13;;;;;;;3.40;61.72;101844.06;5028884;28;20045;-80
2022/04/02 08:56:34;;;;;;;8.88;2.97;;;;;;;3.47;61.59;101839.88;5030368;28;20038;-80
2022/04/02 08:59:04;;;;;;;5.03;2.83;;;;;;;3.50;60.08;101845.19;5028994;28;20026;-80
2022/04/02 09:01:42;;;;;;;5.72;3.15;;;;;;;3.51;60.68;101850.47;5012579;28;20038;-80
2022/04/02 09:04:23;;;;;;;6.50;3.00;;;;;;;3.56;60.49;101851.44;5028498;28;20037;-79
2022/04/02 09:07:45;;;;;;;8.88;4.00;;;;;;;3.63;60.63;101847.22;5029132;28;20045;-80
2022/04/02 09:10:28;;;;;;;9.05;3.35;;;;;;;3.78;61.05;101857.16;5008001;28;20402;-80
2022/04/02 09:13:15;;;;;;;8.25;3.40;;;;;;;3.89;59.95;101863.53;4975285;28;20350;-80
2022/04/02 09:16:04;;;;;;;6.43;3.38;;;;;;;4.04;60.85;101863.84;5026677;28;20068;-80
2022/04/02 09:18:30;;;;;;;6.90;3.42;;;;;;;4.19;59.68;101860.66;5038069;28;20056;-79
2022/04/02 09:20:57;;;;;;;4.70;3.17;;;;;;;4.39;60.07;101871.56;5030417;28;20552;-80
2022/04/02 09:23:44;;;;;;;7.18;4.03;;;;;;;4.56;59.57;101871.03;5007044;28;20037;-80
2022/04/02 09:26:40;;;;;;;7.13;3.22;;;;;;;4.58;59.78;101870.19;5052520;28;20131;-80
2022/04/02 09:29:28;;;;;;;5.72;3.13;;;;;;;4.58;59.15;101869.31;5036167;28;20123;-79
2022/04/02 09:32:06;;;;;;;9.73;4.43;;;;;;;4.63;59.62;101873.78;5026872;28;20060;-80
2022/04/02 09:34:35;;;;;;;9.02;4.13;;;;;;;4.69;58.66;101871.25;5056153;28;20056;-80
2022/04/02 09:37:00;;;;;;;6.65;3.47;;;;;;;4.61;58.07;101878.13;5041485;28;20113;-79
2022/04/02 09:39:39;;;;;;;7.80;3.80;;;;;;;4.55;58.61;101878.00;5040180;28;20046;-79
2022/04/02 09:42:19;;;;;;;8.48;5.07;;;;;;;4.46;58.00;101876.06;5041231;28;20083;-79
2022/04/02 09:45:09;;;;;;;7.10;3.50;;;;;;;4.41;59.24;101882.09;5031963;28;20120;-79
2022/04/02 09:47:40;;;;;;;6.85;3.40;;;;;;;4.36;58.07;101871.50;5047952;28;20110;-79
2022/04/02 09:50:09;;;;;;;6.45;3.10;;;;;;;4.34;58.72;101886.31;5035802;28;20037;-79
2022/04/02 09:52:43;;;;;;;7.03;3.17;;;;;;;4.34;58.74;101880.19;5015442;28;20507;-79
2022/04/02 09:55:19;;;;;;;7.63;3.20;;;;;;;4.34;57.99;101877.56;5044751;28;20036;-79
2022/04/02 09:57:45;;;;;;;6.00;3.20;;;;;;;4.32;57.42;101874.91;5028453;28;20033;-79
2022/04/02 10:00:13;;;;;;;5.60;3.35;;;;;;;4.32;57.41;101877.53;5047218;28;20037;-79
2022/04/02 10:03:18;;;;;;;6.57;3.20;;;;;;;4.33;57.45;101876.69;5047627;28;20416;-79
2022/04/02 10:06:20;;;;;;;8.38;3.75;;;;;;;4.39;57.83;101878.56;5040127;28;20123;-79
2022/04/02 10:08:52;;;;;;;13.85;3.80;;;;;;;4.56;56.41;101873.63;5038814;28;20042;-79
2022/04/02 10:11:23;;;;;;;8.20;3.45;;;;;;;4.63;56.43;101875.53;5035084;28;20041;-80
2022/04/02 10:13:49;;;;;;;;;;;;;;;4.68;57.49;101873.88;5035322;28;20174;-80
2022/04/02 10:16:18;;;;;;;6.55;3.17;;;;;;;4.66;55.67;101876.47;5038739;28;19913;-80
2022/04/02 10:18:44;;;;;;;7.53;3.10;;;;;;;4.67;56.70;101866.84;5046551;28;20033;-79
2022/04/02 10:21:14;;;;;;;5.90;3.35;;;;;;;4.68;56.17;101868.63;5046037;28;20057;-80
2022/04/02 10:23:50;;;;;;;5.00;3.20;;;;;;;4.75;57.11;101870.50;5034177;28;20476;-80
2022/04/02 10:26:17;;;;;;;6.07;3.35;;;;;;;4.79;55.72;101861.81;5033179;28;20037;-80
2022/04/02 10:29:08;;;;;;;6.38;3.50;;;;;;;4.81;56.17;101865.38;5015534;28;20090;-81
2022/04/02 10:31:35;;;;;;;7.00;3.58;;;;;;;4.81;55.64;101864.47;5044094;28;20120;-80
2022/04/02 10:34:09;;;;;;;8.18;3.65;;;;;;;4.84;55.51;101860.16;5038317;28;20579;-80
2022/04/02 10:36:39;;;;;;;6.30;3.25;;;;;;;4.91;54.89;101854.16;5032888;28;20118;-81
2022/04/02 10:39:08;;;;;;;5.18;3.20;;;;;;;4.97;55.63;101853.41;5031443;28;20488;-80
2022/04/02 10:41:38;;;;;;;8.48;3.75;;;;;;;5.00;55.14;101856.09;5031301;28;20109;-80
2022/04/02 10:44:10;;;;;;;7.25;3.55;;;;;;;5.00;55.16;101860.47;5032926;28;20041;-80
2022/04/02 10:46:38;;;;;;;;;;;;;;;4.96;55.49;101864.75;5033138;28;20105;-81
2022/04/02 10:49:08;;;;;;;6.13;3.30;;;;;;;4.78;54.95;101860.06;5032406;28;19912;-81
2022/04/02 10:51:37;;;;;;;5.68;3.08;;;;;;;4.72;55.79;101862.56;5026801;28;20125;-81
2022/04/02 10:54:07;;;;;;;17.65;8.10;;;;;;;4.65;56.19;101868.53;5051036;28;20479;-80
2022/04/02 10:56:44;;;;;;;5.68;3.55;;;;;;;4.66;56.69;101865.09;5052552;28;20072;-80
2022/04/02 10:59:13;;;;;;;4.40;2.97;;;;;;;4.68;54.77;101863.38;5052344;28;20033;-80
2022/04/02 11:01:44;;;;;;;9.50;3.03;;;;;;;4.77;55.42;101866.16;5050982;28;20036;-80
2022/04/02 11:04:56;;;;;;;8.63;3.78;;;;;;;5.04;56.13;101862.25;5050746;28;20052;-80
2022/04/02 11:07:30;;;;;;;5.38;2.95;;;;;;;5.30;53.99;101845.19;5044445;28;20151;-80
2022/04/02 11:09:59;;;;;;;3.83;2.95;;;;;;;5.55;54.98;101849.09;5052852;28;20137;-81
2022/04/02 11:12:38;;;;;;;4.43;2.85;;;;;;;6.05;52.62;101850.69;5050637;28;20440;-81
2022/04/02 11:15:21;;;;;;;6.03;3.40;;;;;;;6.66;53.82;101846.13;5034188;28;20036;-81
2022/04/02 11:17:48;;;;;;;4.97;2.50;;;;;;;7.25;50.47;101836.13;5037305;28;20033;-81
2022/04/02 11:20:15;;;;;;;3.70;2.20;;;;;;;7.33;45.25;101840.59;5033998;28;20502;-82
2022/04/02 11:22:59;;;;;;;5.57;2.83;;;;;;;7.18;46.80;101839.59;5023596;28;20025;-81
2022/04/02 11:25:32;;;;;;;3.28;2.30;;;;;;;6.99;44.97;101841.19;5032116;28;20099;-80
2022/04/02 11:28:15;;;;;;;5.47;2.63;;;;;;;6.86;45.21;101846.34;5030458;28;20042;-81
2022/04/02 11:30:44;;;;;;;4.72;2.53;;;;;;;6.69;44.81;101845.28;5030556;28;20033;-81
2022/04/02 11:33:14;;;;;;;4.70;2.22;;;;;;;6.59;43.61;101844.31;5030072;28;20064;-80
2022/04/02 11:35:44;;;;;;;4.30;2.30;;;;;;;6.52;44.60;101852.13;5046669;28;20235;-78
2022/04/02 11:38:18;;;;;;;5.57;2.72;;;;;;;6.45;45.13;101849.44;5049454;28;20025;-81
2022/04/02 11:41:06;;;;;;;11.40;3.20;;;;;;;6.57;48.06;101853.06;5050510;28;20028;-81
2022/04/02 11:43:35;;;;;;;4.60;2.13;;;;;;;7.14;46.08;101853.59;5050492;28;20124;-82
2022/04/02 11:46:03;;;;;;;3.58;1.98;;;;;;;7.71;46.83;101847.84;5033373;28;20039;-81
2022/04/02 11:48:32;;;;;;;5.30;2.00;;;;;;;7.89;40.97;101848.88;5050726;28;20045;-81
2022/04/02 11:51:20;;;;;;;6.28;2.20;;;;;;;7.78;41.90;101846.16;5051730;28;20127;-83
2022/04/02 11:53:46;;;;;;;6.22;2.50;;;;;;;7.62;41.64;101849.59;5050919;28;20037;-82
2022/04/02 11:56:30;;;;;;;6.60;2.45;;;;;;;7.48;41.97;101855.63;5033963;28;20417;-83